sensor_id;sensor_type;location;lat;lon;timestamp;temperature;humidity
26541;DHT22;14206;50.202;10.948;2022-08-21T00:00:46;16.20;96.60
26541;DHT22;14206;50.202;10.948;2022-08-21T00:03:13;16.10;96.60
26541;DHT22;14206;50.202;10.948;2022-08-21T00:09:54;16.00;96.60
26541;DHT22;14206;50.202;10.948;2022-08-21T00:12:22;16.00;96.60
26541;DHT22;14206;50.202;10.948;2022-08-21T00:14:49;16.00;96.60
26541;DHT22;14206;50.202;10.948;2022-08-21T00:17:20;16.00;96.60
26541;DHT22;14206;50.202;10.948;2022-08-21T00:19:48;16.00;96.50
26541;DHT22;14206;50.202;10.948;2022-08-21T00:22:15;16.00;96.60
26541;DHT22;14206;50.202;10.948;2022-08-21T00:24:42;16.00;96.60
26541;DHT22;14206;50.202;10.948;2022-08-21T00:27:09;16.00;96.60
26541;DHT22;14206;50.202;10.948;2022-08-21T00:29:36;16.00;96.40
26541;DHT22;14206;50.202;10.948;2022-08-21T00:32:03;16.00;96.60
26541;DHT22;14206;50.202;10.948;2022-08-21T00:34:30;16.00;96.60
26541;DHT22;14206;50.202;10.948;2022-08-21T00:36:56;16.00;96.60
26541;DHT22;14206;50.202;10.948;2022-08-21T00:39:23;15.90;96.60
26541;DHT22;14206;50.202;10.948;2022-08-21T00:41:50;16.00;96.60
26541;DHT22;14206;50.202;10.948;2022-08-21T00:44:17;16.00;96.60
26541;DHT22;14206;50.202;10.948;2022-08-21T00:46:44;16.20;96.60
26541;DHT22;14206;50.202;10.948;2022-08-21T00:49:12;16.20;96.60
26541;DHT22;14206;50.202;10.948;2022-08-21T00:51:47;16.30;96.60
26541;DHT22;14206;50.202;10.948;2022-08-21T00:54:15;16.40;96.60
26541;DHT22;14206;50.202;10.948;2022-08-21T00:56:48;16.50;96.60
26541;DHT22;14206;50.202;10.948;2022-08-21T00:59:18;16.60;96.60
26541;DHT22;14206;50.202;10.948;2022-08-21T01:01:45;16.60;96.60
26541;DHT22;14206;50.202;10.948;2022-08-21T01:04:12;16.70;96.60
26541;DHT22;14206;50.202;10.948;2022-08-21T01:06:40;16.80;96.60
26541;DHT22;14206;50.202;10.948;2022-08-21T01:09:07;16.80;96.60
26541;DHT22;14206;50.202;10.948;2022-08-21T01:11:34;16.80;96.60
26541;DHT22;14206;50.202;10.948;2022-08-21T01:14:01;16.90;96.60
26541;DHT22;14206;50.202;10.948;2022-08-21T01:16:28;16.90;96.60
26541;DHT22;14206;50.202;10.948;2022-08-21T01:18:55;17.00;96.60
26541;DHT22;14206;50.202;10.948;2022-08-21T01:21:25;17.00;96.60
26541;DHT22;14206;50.202;10.948;2022-08-21T01:23:56;17.10;96.60
26541;DHT22;14206;50.202;10.948;2022-08-21T01:26:26;17.10;96.60
26541;DHT22;14206;50.202;10.948;2022-08-21T01:31:30;17.20;96.60
26541;DHT22;14206;50.202;10.948;2022-08-21T01:34:00;17.20;96.60
26541;DHT22;14206;50.202;10.948;2022-08-21T01:36:27;17.20;96.60
26541;DHT22;14206;50.202;10.948;2022-08-21T01:38:54;17.30;96.60
26541;DHT22;14206;50.202;10.948;2022-08-21T01:41:21;17.30;96.60
26541;DHT22;14206;50.202;10.948;2022-08-21T01:43:48;17.30;96.60
26541;DHT22;14206;50.202;10.948;2022-08-21T01:46:16;17.40;96.60
26541;DHT22;14206;50.202;10.948;2022-08-21T01:48:43;17.40;96.60
26541;DHT22;14206;50.202;10.948;2022-08-21T01:51:10;17.50;96.60
26541;DHT22;14206;50.202;10.948;2022-08-21T01:53:37;17.50;96.60
26541;DHT22;14206;50.202;10.948;2022-08-21T01:56:08;17.50;96.60
26541;DHT22;14206;50.202;10.948;2022-08-21T01:58:40;17.50;96.60
26541;DHT22;14206;50.202;10.948;2022-08-21T02:01:08;17.50;96.60
26541;DHT22;14206;50.202;10.948;2022-08-21T02:03:36;17.50;96.60
26541;DHT22;14206;50.202;10.948;2022-08-21T02:06:04;17.50;96.60
26541;DHT22;14206;50.202;10.948;2022-08-21T02:08:32;17.60;96.60
26541;DHT22;14206;50.202;10.948;2022-08-21T02:10:59;17.60;96.60
26541;DHT22;14206;50.202;10.948;2022-08-21T02:13:26;17.60;96.60
26541;DHT22;14206;50.202;10.948;2022-08-21T02:15:53;17.60;96.60
26541;DHT22;14206;50.202;10.948;2022-08-21T02:18:20;17.60;96.60
26541;DHT22;14206;50.202;10.948;2022-08-21T02:20:48;17.50;96.60
26541;DHT22;14206;50.202;10.948;2022-08-21T02:23:23;17.40;96.60
26541;DHT22;14206;50.202;10.948;2022-08-21T02:25:56;17.40;96.60
26541;DHT22;14206;50.202;10.948;2022-08-21T02:28:23;17.40;96.60
26541;DHT22;14206;50.202;10.948;2022-08-21T02:30:52;17.50;96.60
26541;DHT22;14206;50.202;10.948;2022-08-21T02:33:19;17.50;96.60
26541;DHT22;14206;50.202;10.948;2022-08-21T02:35:47;17.50;96.60
26541;DHT22;14206;50.202;10.948;2022-08-21T02:38:18;17.60;96.60
26541;DHT22;14206;50.202;10.948;2022-08-21T02:40:48;17.60;96.60
26541;DHT22;14206;50.202;10.948;2022-08-21T02:43:18;17.60;96.60
26541;DHT22;14206;50.202;10.948;2022-08-21T02:45:46;17.70;96.60
26541;DHT22;14206;50.202;10.948;2022-08-21T02:48:17;17.60;96.60
26541;DHT22;14206;50.202;10.948;2022-08-21T02:50:53;17.60;96.60
26541;DHT22;14206;50.202;10.948;2022-08-21T02:53:20;17.50;96.60
26541;DHT22;14206;50.202;10.948;2022-08-21T02:55:50;17.50;96.60
26541;DHT22;14206;50.202;10.948;2022-08-21T02:58:20;17.40;96.60
26541;DHT22;14206;50.202;10.948;2022-08-21T03:00:47;17.40;96.60
26541;DHT22;14206;50.202;10.948;2022-08-21T03:03:14;17.40;96.60
26541;DHT22;14206;50.202;10.948;2022-08-21T03:05:43;17.30;96.60
26541;DHT22;14206;50.202;10.948;2022-08-21T03:08:11;17.30;96.60
26541;DHT22;14206;50.202;10.948;2022-08-21T03:10:42;17.30;96.60
26541;DHT22;14206;50.202;10.948;2022-08-21T03:13:10;17.30;96.60
26541;DHT22;14206;50.202;10.948;2022-08-21T03:15:37;17.20;96.60
26541;DHT22;14206;50.202;10.948;2022-08-21T03:18:05;17.20;96.60
26541;DHT22;14206;50.202;10.948;2022-08-21T03:20:33;17.10;96.60
26541;DHT22;14206;50.202;10.948;2022-08-21T03:23:01;17.10;96.60
26541;DHT22;14206;50.202;10.948;2022-08-21T03:25:41;17.10;96.60
26541;DHT22;14206;50.202;10.948;2022-08-21T03:28:12;17.10;96.60
26541;DHT22;14206;50.202;10.948;2022-08-21T03:30:45;17.00;96.60
26541;DHT22;14206;50.202;10.948;2022-08-21T03:33:13;16.90;96.60
26541;DHT22;14206;50.202;10.948;2022-08-21T03:35:43;16.90;96.60
26541;DHT22;14206;50.202;10.948;2022-08-21T03:38:11;16.90;96.60
26541;DHT22;14206;50.202;10.948;2022-08-21T03:40:41;16.90;96.60
26541;DHT22;14206;50.202;10.948;2022-08-21T03:43:08;16.90;96.60
26541;DHT22;14206;50.202;10.948;2022-08-21T03:45:36;16.80;96.60
26541;DHT22;14206;50.202;10.948;2022-08-21T03:48:05;16.80;96.60
26541;DHT22;14206;50.202;10.948;2022-08-21T03:50:37;16.70;96.60
26541;DHT22;14206;50.202;10.948;2022-08-21T03:53:09;16.70;96.60
26541;DHT22;14206;50.202;10.948;2022-08-21T03:55:45;16.70;96.60
26541;DHT22;14206;50.202;10.948;2022-08-21T03:58:13;16.60;96.60
26541;DHT22;14206;50.202;10.948;2022-08-21T04:00:47;16.60;96.60
26541;DHT22;14206;50.202;10.948;2022-08-21T04:03:15;16.60;96.60
26541;DHT22;14206;50.202;10.948;2022-08-21T04:05:43;16.70;96.60
26541;DHT22;14206;50.202;10.948;2022-08-21T04:08:12;16.70;96.60
26541;DHT22;14206;50.202;10.948;2022-08-21T04:10:43;16.70;96.60
26541;DHT22;14206;50.202;10.948;2022-08-21T04:13:11;16.70;96.60
26541;DHT22;14206;50.202;10.948;2022-08-21T04:15:38;16.70;96.60
26541;DHT22;14206;50.202;10.948;2022-08-21T04:18:05;16.70;96.60
26541;DHT22;14206;50.202;10.948;2022-08-21T04:20:32;16.60;96.60
26541;DHT22;14206;50.202;10.948;2022-08-21T04:23:00;16.60;96.60
26541;DHT22;14206;50.202;10.948;2022-08-21T04:25:28;16.60;96.60
26541;DHT22;14206;50.202;10.948;2022-08-21T04:27:55;16.50;96.60
26541;DHT22;14206;50.202;10.948;2022-08-21T04:30:22;16.50;96.60
26541;DHT22;14206;50.202;10.948;2022-08-21T04:32:55;16.50;96.60
26541;DHT22;14206;50.202;10.948;2022-08-21T04:35:24;16.50;96.60
26541;DHT22;14206;50.202;10.948;2022-08-21T04:37:52;16.60;96.60
26541;DHT22;14206;50.202;10.948;2022-08-21T04:40:21;16.60;96.60
26541;DHT22;14206;50.202;10.948;2022-08-21T04:42:51;16.60;96.60
26541;DHT22;14206;50.202;10.948;2022-08-21T04:45:22;16.60;96.60
26541;DHT22;14206;50.202;10.948;2022-08-21T04:47:51;16.60;96.60
26541;DHT22;14206;50.202;10.948;2022-08-21T04:50:21;16.60;96.60
26541;DHT22;14206;50.202;10.948;2022-08-21T04:53:03;16.60;96.60
26541;DHT22;14206;50.202;10.948;2022-08-21T04:55:30;16.60;96.60
26541;DHT22;14206;50.202;10.948;2022-08-21T04:57:57;16.70;96.60
26541;DHT22;14206;50.202;10.948;2022-08-21T05:00:24;16.70;96.60
26541;DHT22;14206;50.202;10.948;2022-08-21T05:02:54;16.80;96.60
26541;DHT22;14206;50.202;10.948;2022-08-21T05:05:23;16.90;96.60
26541;DHT22;14206;50.202;10.948;2022-08-21T05:07:51;17.00;96.60
26541;DHT22;14206;50.202;10.948;2022-08-21T05:10:19;17.00;96.60
26541;DHT22;14206;50.202;10.948;2022-08-21T05:12:47;17.10;96.60
26541;DHT22;14206;50.202;10.948;2022-08-21T05:15:14;17.10;96.60
26541;DHT22;14206;50.202;10.948;2022-08-21T05:17:41;17.10;96.60
26541;DHT22;14206;50.202;10.948;2022-08-21T05:20:10;17.20;96.60
26541;DHT22;14206;50.202;10.948;2022-08-21T05:22:37;17.20;96.60
26541;DHT22;14206;50.202;10.948;2022-08-21T05:25:05;17.20;96.60
26541;DHT22;14206;50.202;10.948;2022-08-21T05:27:37;17.30;96.60
26541;DHT22;14206;50.202;10.948;2022-08-21T05:30:09;17.30;96.60
26541;DHT22;14206;50.202;10.948;2022-08-21T05:32:36;17.40;96.60
26541;DHT22;14206;50.202;10.948;2022-08-21T05:35:05;17.40;96.60
26541;DHT22;14206;50.202;10.948;2022-08-21T05:37:32;17.50;96.60
26541;DHT22;14206;50.202;10.948;2022-08-21T05:40:00;17.60;96.60
26541;DHT22;14206;50.202;10.948;2022-08-21T05:42:47;17.70;96.60
26541;DHT22;14206;50.202;10.948;2022-08-21T05:45:22;17.70;96.60
26541;DHT22;14206;50.202;10.948;2022-08-21T05:48:14;17.90;96.60
26541;DHT22;14206;50.202;10.948;2022-08-21T05:50:43;18.00;96.60
26541;DHT22;14206;50.202;10.948;2022-08-21T05:53:10;18.00;96.60
26541;DHT22;14206;50.202;10.948;2022-08-21T05:55:38;18.10;96.60
26541;DHT22;14206;50.202;10.948;2022-08-21T05:58:16;18.10;96.60
26541;DHT22;14206;50.202;10.948;2022-08-21T06:00:45;18.20;96.60
26541;DHT22;14206;50.202;10.948;2022-08-21T06:03:19;18.30;96.60
26541;DHT22;14206;50.202;10.948;2022-08-21T06:05:47;18.30;96.60
26541;DHT22;14206;50.202;10.948;2022-08-21T06:08:15;18.40;96.60
26541;DHT22;14206;50.202;10.948;2022-08-21T06:10:44;18.40;96.60
26541;DHT22;14206;50.202;10.948;2022-08-21T06:13:11;18.50;96.60
26541;DHT22;14206;50.202;10.948;2022-08-21T06:15:38;18.60;96.60
26541;DHT22;14206;50.202;10.948;2022-08-21T06:18:06;18.70;96.60
26541;DHT22;14206;50.202;10.948;2022-08-21T06:20:33;18.90;95.90
26541;DHT22;14206;50.202;10.948;2022-08-21T06:23:00;18.90;95.50
26541;DHT22;14206;50.202;10.948;2022-08-21T06:25:28;19.00;95.30
26541;DHT22;14206;50.202;10.948;2022-08-21T06:28:08;19.10;94.90
26541;DHT22;14206;50.202;10.948;2022-08-21T06:30:37;19.10;94.60
26541;DHT22;14206;50.202;10.948;2022-08-21T06:33:05;19.10;94.20
26541;DHT22;14206;50.202;10.948;2022-08-21T06:35:34;19.10;94.20
26541;DHT22;14206;50.202;10.948;2022-08-21T06:38:01;19.10;94.20
26541;DHT22;14206;50.202;10.948;2022-08-21T06:40:29;19.20;94.30
26541;DHT22;14206;50.202;10.948;2022-08-21T06:43:16;19.30;94.10
26541;DHT22;14206;50.202;10.948;2022-08-21T06:45:43;19.40;93.70
26541;DHT22;14206;50.202;10.948;2022-08-21T06:48:11;19.50;93.60
26541;DHT22;14206;50.202;10.948;2022-08-21T06:50:45;19.60;92.90
26541;DHT22;14206;50.202;10.948;2022-08-21T06:53:15;19.70;92.70
26541;DHT22;14206;50.202;10.948;2022-08-21T06:55:42;19.70;92.90
26541;DHT22;14206;50.202;10.948;2022-08-21T06:58:10;19.80;92.50
26541;DHT22;14206;50.202;10.948;2022-08-21T07:00:44;19.90;91.60
26541;DHT22;14206;50.202;10.948;2022-08-21T07:03:29;20.00;92.00
26541;DHT22;14206;50.202;10.948;2022-08-21T07:05:56;20.10;91.50
26541;DHT22;14206;50.202;10.948;2022-08-21T07:08:26;20.20;90.40
26541;DHT22;14206;50.202;10.948;2022-08-21T07:10:59;20.20;90.50
26541;DHT22;14206;50.202;10.948;2022-08-21T07:13:27;20.00;91.00
26541;DHT22;14206;50.202;10.948;2022-08-21T07:15:54;20.00;91.70
26541;DHT22;14206;50.202;10.948;2022-08-21T07:18:28;20.00;91.80
26541;DHT22;14206;50.202;10.948;2022-08-21T07:20:55;20.10;92.10
26541;DHT22;14206;50.202;10.948;2022-08-21T07:23:26;20.20;91.50
26541;DHT22;14206;50.202;10.948;2022-08-21T07:25:54;20.20;91.30
26541;DHT22;14206;50.202;10.948;2022-08-21T07:28:21;20.30;91.70
26541;DHT22;14206;50.202;10.948;2022-08-21T07:30:52;20.40;91.30
26541;DHT22;14206;50.202;10.948;2022-08-21T07:33:19;20.50;90.00
26541;DHT22;14206;50.202;10.948;2022-08-21T07:35:46;20.70;90.40
26541;DHT22;14206;50.202;10.948;2022-08-21T07:38:13;20.80;89.80
26541;DHT22;14206;50.202;10.948;2022-08-21T07:40:40;21.10;89.70
26541;DHT22;14206;50.202;10.948;2022-08-21T07:43:07;21.40;88.70
26541;DHT22;14206;50.202;10.948;2022-08-21T07:45:35;21.60;87.20
26541;DHT22;14206;50.202;10.948;2022-08-21T07:48:02;21.70;87.00
26541;DHT22;14206;50.202;10.948;2022-08-21T07:50:29;21.70;87.30
26541;DHT22;14206;50.202;10.948;2022-08-21T07:52:56;21.80;87.00
26541;DHT22;14206;50.202;10.948;2022-08-21T07:55:23;22.00;86.60
26541;DHT22;14206;50.202;10.948;2022-08-21T07:57:50;22.20;85.20
26541;DHT22;14206;50.202;10.948;2022-08-21T08:00:20;22.50;84.30
26541;DHT22;14206;50.202;10.948;2022-08-21T08:02:50;22.80;83.60
26541;DHT22;14206;50.202;10.948;2022-08-21T08:05:19;23.10;83.00
26541;DHT22;14206;50.202;10.948;2022-08-21T08:07:47;23.30;82.00
26541;DHT22;14206;50.202;10.948;2022-08-21T08:10:15;23.50;81.70
26541;DHT22;14206;50.202;10.948;2022-08-21T08:12:42;23.70;81.50
26541;DHT22;14206;50.202;10.948;2022-08-21T08:15:16;24.30;81.10
26541;DHT22;14206;50.202;10.948;2022-08-21T08:17:43;25.90;77.10
26541;DHT22;14206;50.202;10.948;2022-08-21T08:20:12;26.10;74.80
26541;DHT22;14206;50.202;10.948;2022-08-21T08:22:40;26.10;74.20
26541;DHT22;14206;50.202;10.948;2022-08-21T08:25:09;26.70;73.40
26541;DHT22;14206;50.202;10.948;2022-08-21T08:27:37;28.00;71.30
26541;DHT22;14206;50.202;10.948;2022-08-21T08:30:06;29.80;67.80
26541;DHT22;14206;50.202;10.948;2022-08-21T08:32:33;30.90;64.30
26541;DHT22;14206;50.202;10.948;2022-08-21T08:35:01;31.80;62.30
26541;DHT22;14206;50.202;10.948;2022-08-21T08:37:29;32.70;60.50
26541;DHT22;14206;50.202;10.948;2022-08-21T08:40:00;33.20;57.70
26541;DHT22;14206;50.202;10.948;2022-08-21T08:42:32;34.00;56.70
26541;DHT22;14206;50.202;10.948;2022-08-21T08:47:32;34.60;54.40
26541;DHT22;14206;50.202;10.948;2022-08-21T08:50:05;34.30;55.60
26541;DHT22;14206;50.202;10.948;2022-08-21T08:52:35;34.60;55.80
26541;DHT22;14206;50.202;10.948;2022-08-21T08:55:07;35.90;52.70
26541;DHT22;14206;50.202;10.948;2022-08-21T08:57:37;37.10;51.20
26541;DHT22;14206;50.202;10.948;2022-08-21T09:00:09;37.60;49.40
26541;DHT22;14206;50.202;10.948;2022-08-21T09:02:42;38.30;48.00
26541;DHT22;14206;50.202;10.948;2022-08-21T09:05:24;38.70;45.80
26541;DHT22;14206;50.202;10.948;2022-08-21T09:16:36;40.40;42.00
26541;DHT22;14206;50.202;10.948;2022-08-21T09:21:53;40.50;40.60
26541;DHT22;14206;50.202;10.948;2022-08-21T09:24:53;40.80;41.40
26541;DHT22;14206;50.202;10.948;2022-08-21T09:27:23;40.90;39.30
26541;DHT22;14206;50.202;10.948;2022-08-21T09:29:53;41.40;39.80
26541;DHT22;14206;50.202;10.948;2022-08-21T09:32:24;41.80;39.40
26541;DHT22;14206;50.202;10.948;2022-08-21T09:40:40;41.00;39.30
26541;DHT22;14206;50.202;10.948;2022-08-21T09:45:40;40.10;41.00
26541;DHT22;14206;50.202;10.948;2022-08-21T09:48:29;39.60;41.40
26541;DHT22;14206;50.202;10.948;2022-08-21T09:51:07;40.00;40.10
26541;DHT22;14206;50.202;10.948;2022-08-21T09:53:41;40.50;39.50
26541;DHT22;14206;50.202;10.948;2022-08-21T09:56:27;40.70;39.50
26541;DHT22;14206;50.202;10.948;2022-08-21T09:59:16;40.80;39.10
26541;DHT22;14206;50.202;10.948;2022-08-21T10:01:46;41.10;39.00
26541;DHT22;14206;50.202;10.948;2022-08-21T10:04:14;41.50;38.80
26541;DHT22;14206;50.202;10.948;2022-08-21T10:06:41;41.90;38.70
26541;DHT22;14206;50.202;10.948;2022-08-21T10:09:11;42.30;37.70
26541;DHT22;14206;50.202;10.948;2022-08-21T10:15:01;42.80;36.10
26541;DHT22;14206;50.202;10.948;2022-08-21T10:17:38;43.10;37.60
26541;DHT22;14206;50.202;10.948;2022-08-21T10:20:19;41.90;38.00
26541;DHT22;14206;50.202;10.948;2022-08-21T10:25:46;41.80;37.60
26541;DHT22;14206;50.202;10.948;2022-08-21T10:28:50;42.20;37.30
26541;DHT22;14206;50.202;10.948;2022-08-21T10:36:43;43.00;34.20
26541;DHT22;14206;50.202;10.948;2022-08-21T10:48:06;43.20;34.50
26541;DHT22;14206;50.202;10.948;2022-08-21T10:56:35;43.90;32.00
26541;DHT22;14206;50.202;10.948;2022-08-21T11:04:42;44.10;32.50
26541;DHT22;14206;50.202;10.948;2022-08-21T11:07:43;44.30;32.20
26541;DHT22;14206;50.202;10.948;2022-08-21T11:13:49;44.40;31.20
26541;DHT22;14206;50.202;10.948;2022-08-21T11:16:44;44.50;29.90
26541;DHT22;14206;50.202;10.948;2022-08-21T11:19:25;44.60;31.40
26541;DHT22;14206;50.202;10.948;2022-08-21T11:22:13;44.80;30.80
26541;DHT22;14206;50.202;10.948;2022-08-21T11:27:42;44.80;29.90
26541;DHT22;14206;50.202;10.948;2022-08-21T11:30:11;45.20;29.20
26541;DHT22;14206;50.202;10.948;2022-08-21T11:35:52;44.70;28.80
26541;DHT22;14206;50.202;10.948;2022-08-21T11:38:28;45.10;29.70
26541;DHT22;14206;50.202;10.948;2022-08-21T11:46:41;44.70;28.70
26541;DHT22;14206;50.202;10.948;2022-08-21T11:52:18;44.40;28.10
26541;DHT22;14206;50.202;10.948;2022-08-21T11:54:52;44.40;28.30
26541;DHT22;14206;50.202;10.948;2022-08-21T11:57:55;43.80;29.30
26541;DHT22;14206;50.202;10.948;2022-08-21T12:00:41;44.10;29.50
26541;DHT22;14206;50.202;10.948;2022-08-21T12:03:14;44.30;29.60
26541;DHT22;14206;50.202;10.948;2022-08-21T12:05:46;44.00;30.30
26541;DHT22;14206;50.202;10.948;2022-08-21T12:08:34;43.90;30.10
26541;DHT22;14206;50.202;10.948;2022-08-21T12:13:58;42.40;29.90
26541;DHT22;14206;50.202;10.948;2022-08-21T12:16:38;40.50;32.70
26541;DHT22;14206;50.202;10.948;2022-08-21T12:19:06;39.60;33.20
26541;DHT22;14206;50.202;10.948;2022-08-21T12:24:20;37.90;35.20
26541;DHT22;14206;50.202;10.948;2022-08-21T12:27:12;36.90;36.30
26541;DHT22;14206;50.202;10.948;2022-08-21T12:30:17;36.00;37.90
26541;DHT22;14206;50.202;10.948;2022-08-21T12:32:46;35.10;39.80
26541;DHT22;14206;50.202;10.948;2022-08-21T12:35:38;34.40;40.20
26541;DHT22;14206;50.202;10.948;2022-08-21T12:38:28;34.00;40.50
26541;DHT22;14206;50.202;10.948;2022-08-21T12:41:09;33.70;42.10
26541;DHT22;14206;50.202;10.948;2022-08-21T12:43:45;33.70;41.80
26541;DHT22;14206;50.202;10.948;2022-08-21T12:46:20;33.30;42.20
26541;DHT22;14206;50.202;10.948;2022-08-21T12:48:59;34.20;41.40
26541;DHT22;14206;50.202;10.948;2022-08-21T12:51:46;34.90;40.50
26541;DHT22;14206;50.202;10.948;2022-08-21T12:54:26;35.80;39.00
26541;DHT22;14206;50.202;10.948;2022-08-21T12:57:04;36.70;38.10
26541;DHT22;14206;50.202;10.948;2022-08-21T12:59:32;37.60;37.20
26541;DHT22;14206;50.202;10.948;2022-08-21T13:02:03;38.00;36.30
26541;DHT22;14206;50.202;10.948;2022-08-21T13:04:36;37.60;36.80
26541;DHT22;14206;50.202;10.948;2022-08-21T13:07:10;36.90;37.90
26541;DHT22;14206;50.202;10.948;2022-08-21T13:09:51;36.60;38.70
26541;DHT22;14206;50.202;10.948;2022-08-21T13:12:21;36.50;38.30
26541;DHT22;14206;50.202;10.948;2022-08-21T13:14:56;36.90;39.10
26541;DHT22;14206;50.202;10.948;2022-08-21T13:17:25;36.70;38.30
26541;DHT22;14206;50.202;10.948;2022-08-21T13:20:01;36.40;39.70
26541;DHT22;14206;50.202;10.948;2022-08-21T13:22:29;36.40;39.00
26541;DHT22;14206;50.202;10.948;2022-08-21T13:25:01;36.30;38.80
26541;DHT22;14206;50.202;10.948;2022-08-21T13:27:33;36.10;39.50
26541;DHT22;14206;50.202;10.948;2022-08-21T13:30:20;35.50;39.50
26541;DHT22;14206;50.202;10.948;2022-08-21T13:32:54;34.60;40.50
26541;DHT22;14206;50.202;10.948;2022-08-21T13:35:47;33.90;40.40
26541;DHT22;14206;50.202;10.948;2022-08-21T13:38:12;33.30;41.10
26541;DHT22;14206;50.202;10.948;2022-08-21T13:40:50;32.60;40.90
26541;DHT22;14206;50.202;10.948;2022-08-21T13:43:21;32.30;42.40
26541;DHT22;14206;50.202;10.948;2022-08-21T13:45:51;32.00;42.80
26541;DHT22;14206;50.202;10.948;2022-08-21T13:48:20;31.70;42.40
26541;DHT22;14206;50.202;10.948;2022-08-21T13:50:47;31.50;44.00
26541;DHT22;14206;50.202;10.948;2022-08-21T13:53:35;31.40;43.90
26541;DHT22;14206;50.202;10.948;2022-08-21T13:56:04;31.40;44.00
26541;DHT22;14206;50.202;10.948;2022-08-21T13:58:42;31.30;44.40
26541;DHT22;14206;50.202;10.948;2022-08-21T14:03:48;30.70;45.30
26541;DHT22;14206;50.202;10.948;2022-08-21T14:06:21;30.60;44.80
26541;DHT22;14206;50.202;10.948;2022-08-21T14:08:53;30.50;44.90
26541;DHT22;14206;50.202;10.948;2022-08-21T14:11:21;30.30;45.30
26541;DHT22;14206;50.202;10.948;2022-08-21T14:13:56;30.10;46.40
26541;DHT22;14206;50.202;10.948;2022-08-21T14:16:27;30.10;47.20
26541;DHT22;14206;50.202;10.948;2022-08-21T14:21:35;30.30;46.50
26541;DHT22;14206;50.202;10.948;2022-08-21T14:24:23;30.30;45.80
26541;DHT22;14206;50.202;10.948;2022-08-21T14:26:55;30.30;46.40
26541;DHT22;14206;50.202;10.948;2022-08-21T14:29:25;30.40;46.70
26541;DHT22;14206;50.202;10.948;2022-08-21T14:31:59;30.50;46.00
26541;DHT22;14206;50.202;10.948;2022-08-21T14:34:28;30.60;46.80
26541;DHT22;14206;50.202;10.948;2022-08-21T14:37:01;30.70;46.40
26541;DHT22;14206;50.202;10.948;2022-08-21T14:39:28;30.80;45.80
26541;DHT22;14206;50.202;10.948;2022-08-21T14:41:57;30.90;46.40
26541;DHT22;14206;50.202;10.948;2022-08-21T14:44:24;30.80;46.10
26541;DHT22;14206;50.202;10.948;2022-08-21T14:46:51;30.70;46.40
26541;DHT22;14206;50.202;10.948;2022-08-21T14:49:27;30.60;46.00
26541;DHT22;14206;50.202;10.948;2022-08-21T14:51:56;30.40;46.80
26541;DHT22;14206;50.202;10.948;2022-08-21T14:54:26;30.30;47.50
26541;DHT22;14206;50.202;10.948;2022-08-21T14:57:05;30.10;47.10
26541;DHT22;14206;50.202;10.948;2022-08-21T14:59:32;29.90;46.90
26541;DHT22;14206;50.202;10.948;2022-08-21T15:02:01;29.80;47.10
26541;DHT22;14206;50.202;10.948;2022-08-21T15:04:30;29.70;47.20
26541;DHT22;14206;50.202;10.948;2022-08-21T15:06:58;29.60;48.40
26541;DHT22;14206;50.202;10.948;2022-08-21T15:09:25;29.50;48.60
26541;DHT22;14206;50.202;10.948;2022-08-21T15:11:57;29.50;48.60
26541;DHT22;14206;50.202;10.948;2022-08-21T15:14:27;29.50;48.50
26541;DHT22;14206;50.202;10.948;2022-08-21T15:16:55;29.40;48.30
26541;DHT22;14206;50.202;10.948;2022-08-21T15:19:23;29.20;48.60
26541;DHT22;14206;50.202;10.948;2022-08-21T15:21:49;29.10;48.50
26541;DHT22;14206;50.202;10.948;2022-08-21T15:24:19;28.80;48.50
26541;DHT22;14206;50.202;10.948;2022-08-21T15:26:46;28.70;48.70
26541;DHT22;14206;50.202;10.948;2022-08-21T15:29:13;28.60;49.10
26541;DHT22;14206;50.202;10.948;2022-08-21T15:31:59;28.60;49.00
26541;DHT22;14206;50.202;10.948;2022-08-21T15:34:28;28.50;49.30
26541;DHT22;14206;50.202;10.948;2022-08-21T15:36:57;28.50;49.50
26541;DHT22;14206;50.202;10.948;2022-08-21T15:39:25;28.50;49.40
26541;DHT22;14206;50.202;10.948;2022-08-21T15:41:57;28.50;49.10
26541;DHT22;14206;50.202;10.948;2022-08-21T15:44:25;28.40;49.20
26541;DHT22;14206;50.202;10.948;2022-08-21T15:46:54;28.40;49.40
26541;DHT22;14206;50.202;10.948;2022-08-21T15:49:22;28.30;48.40
26541;DHT22;14206;50.202;10.948;2022-08-21T15:51:49;28.10;49.80
26541;DHT22;14206;50.202;10.948;2022-08-21T15:54:16;28.00;49.20
26541;DHT22;14206;50.202;10.948;2022-08-21T15:56:46;27.80;50.10
26541;DHT22;14206;50.202;10.948;2022-08-21T15:59:19;27.70;50.00
26541;DHT22;14206;50.202;10.948;2022-08-21T16:01:51;27.70;50.10
26541;DHT22;14206;50.202;10.948;2022-08-21T16:04:25;27.70;49.60
26541;DHT22;14206;50.202;10.948;2022-08-21T16:06:53;27.60;50.00
26541;DHT22;14206;50.202;10.948;2022-08-21T16:09:25;27.60;49.70
26541;DHT22;14206;50.202;10.948;2022-08-21T16:11:52;27.60;48.90
26541;DHT22;14206;50.202;10.948;2022-08-21T16:14:19;27.60;49.50
26541;DHT22;14206;50.202;10.948;2022-08-21T16:16:46;27.60;49.30
26541;DHT22;14206;50.202;10.948;2022-08-21T16:19:13;27.60;49.90
26541;DHT22;14206;50.202;10.948;2022-08-21T16:21:40;27.60;49.80
26541;DHT22;14206;50.202;10.948;2022-08-21T16:24:07;27.50;49.50
26541;DHT22;14206;50.202;10.948;2022-08-21T16:26:35;27.40;49.10
26541;DHT22;14206;50.202;10.948;2022-08-21T16:29:02;27.40;49.60
26541;DHT22;14206;50.202;10.948;2022-08-21T16:31:30;27.30;49.30
26541;DHT22;14206;50.202;10.948;2022-08-21T16:33:58;27.30;49.50
26541;DHT22;14206;50.202;10.948;2022-08-21T16:36:26;27.40;48.80
26541;DHT22;14206;50.202;10.948;2022-08-21T16:38:54;27.30;49.50
26541;DHT22;14206;50.202;10.948;2022-08-21T16:41:23;27.20;49.70
26541;DHT22;14206;50.202;10.948;2022-08-21T16:43:51;27.20;49.80
26541;DHT22;14206;50.202;10.948;2022-08-21T16:46:19;27.10;49.30
26541;DHT22;14206;50.202;10.948;2022-08-21T16:48:47;27.10;48.70
26541;DHT22;14206;50.202;10.948;2022-08-21T16:51:16;27.10;49.10
26541;DHT22;14206;50.202;10.948;2022-08-21T16:53:43;27.10;48.90
26541;DHT22;14206;50.202;10.948;2022-08-21T16:56:12;27.10;49.10
26541;DHT22;14206;50.202;10.948;2022-08-21T16:58:41;27.20;49.40
26541;DHT22;14206;50.202;10.948;2022-08-21T17:01:11;27.20;49.20
26541;DHT22;14206;50.202;10.948;2022-08-21T17:03:41;27.30;49.50
26541;DHT22;14206;50.202;10.948;2022-08-21T17:06:09;27.30;49.50
26541;DHT22;14206;50.202;10.948;2022-08-21T17:08:36;27.30;48.20